Time;durP1;ratioP1;P1;durP2;ratioP2;P2;SDS_P1;SDS_P2;PMS_P1;PMS_P2;Temp;Humidity;BMP_temperature;BMP_pressure;BME280_temperature;BME280_humidity;BME280_pressure;Samples;Min_cycle;Max_cycle;Signal;HPM_P1;HPM_P2
2023/08/21 00:00:13;;;;;;;2.50;1.67;;;;;;;;;;5053161;28;20242;-49
2023/08/21 00:02:39;;;;;;;3.67;1.80;;;;;;;;;;5053089;28;20302;-50
2023/08/21 00:05:05;;;;;;;3.70;2.00;;;;;;;;;;5053134;28;20247;-50
2023/08/21 00:07:31;;;;;;;3.30;1.80;;;;;;;;;;5052938;28;20223;-53
2023/08/21 00:09:57;;;;;;;3.23;2.00;;;;;;;;;;5053036;28;20658;-51
2023/08/21 00:12:23;;;;;;;2.90;2.00;;;;;;;;;;5053081;28;20253;-51
2023/08/21 00:14:51;;;;;;;2.83;2.07;;;;;;;;;;5052863;28;20252;-51
2023/08/21 00:17:17;;;;;;;3.90;3.30;;;;;;;;;;5052798;28;20757;-51
2023/08/21 00:19:43;;;;;;;4.90;3.20;;;;;;;;;;5052959;28;20207;-51
2023/08/21 00:22:09;;;;;;;6.03;5.40;;;;;;;;;;5052942;28;20322;-51
2023/08/21 00:24:35;;;;;;;6.00;2.30;;;;;;;;;;5052736;28;20200;-51
2023/08/21 00:27:03;;;;;;;2.47;1.80;;;;;;;;;;5052659;28;20750;-51
2023/08/21 00:29:29;;;;;;;2.00;1.80;;;;;;;;;;5052498;28;20632;-51
2023/08/21 00:31:57;;;;;;;3.83;1.93;;;;;;;;;;5052863;28;20210;-51
2023/08/21 00:34:23;;;;;;;2.77;1.70;;;;;;;;;;5052623;28;20301;-51
2023/08/21 00:36:49;;;;;;;3.07;1.97;;;;;;;;;;5052466;28;20202;-52
2023/08/21 00:39:15;;;;;;;5.43;2.20;;;;;;;;;;5052469;28;20202;-52
2023/08/21 00:41:42;;;;;;;5.03;4.17;;;;;;;;;;5052392;28;20257;-51
2023/08/21 00:44:08;;;;;;;8.10;5.37;;;;;;;;;;5052294;28;20282;-52
2023/08/21 00:46:34;;;;;;;2.60;2.20;;;;;;;;;;5052512;28;20201;-51
2023/08/21 00:49:02;;;;;;;2.43;2.20;;;;;;;;;;5052281;28;20618;-51
2023/08/21 00:51:28;;;;;;;4.47;2.00;;;;;;;;;;5052158;28;20252;-52
2023/08/21 00:53:54;;;;;;;2.67;1.83;;;;;;;;;;5052296;28;20716;-51
2023/08/21 00:56:21;;;;;;;2.87;1.97;;;;;;;;;;5052078;28;20284;-51
2023/08/21 00:58:47;;;;;;;2.33;1.77;;;;;;;;;;5052204;28;20209;-52
2023/08/21 01:01:14;;;;;;;3.10;2.00;;;;;;;;;;5051593;28;20204;-52
2023/08/21 01:03:40;;;;;;;2.27;1.80;;;;;;;;;;5051980;28;20236;-51
2023/08/21 01:06:08;;;;;;;5.00;1.93;;;;;;;;;;5052330;28;20212;-51
2023/08/21 01:08:40;;;;;;;3.93;2.47;;;;;;;;;;5052136;28;20561;-51
2023/08/21 01:11:09;;;;;;;2.67;2.17;;;;;;;;;;5052141;28;20733;-51
2023/08/21 01:13:39;;;;;;;2.90;2.00;;;;;;;;;;5051990;28;20189;-51
2023/08/21 01:16:05;;;;;;;2.83;1.73;;;;;;;;;;5052012;28;20658;-51
2023/08/21 01:18:34;;;;;;;3.27;2.10;;;;;;;;;;5051911;28;20259;-51
2023/08/21 01:21:00;;;;;;;2.87;1.90;;;;;;;;;;5052005;28;20276;-51
2023/08/21 01:23:32;;;;;;;1.93;1.60;;;;;;;;;;5051536;28;20603;-51
2023/08/21 01:25:58;;;;;;;3.43;2.00;;;;;;;;;;5051982;28;20208;-51
2023/08/21 01:28:24;;;;;;;4.37;3.10;;;;;;;;;;5051885;28;20203;-51
2023/08/21 01:30:51;;;;;;;9.77;8.87;;;;;;;;;;5051681;28;20297;-51
2023/08/21 01:33:18;;;;;;;5.60;2.20;;;;;;;;;;5051763;28;20208;-51
2023/08/21 01:35:44;;;;;;;2.53;2.17;;;;;;;;;;5051486;28;20284;-52
2023/08/21 01:38:10;;;;;;;4.87;4.40;;;;;;;;;;5051673;28;20236;-51
2023/08/21 01:40:38;;;;;;;29.10;26.40;;;;;;;;;;5051512;28;20293;-51
2023/08/21 01:43:04;;;;;;;5.20;4.70;;;;;;;;;;5033526;28;20223;-51
2023/08/21 01:45:30;;;;;;;4.03;2.43;;;;;;;;;;5051255;28;20638;-51
2023/08/21 01:47:56;;;;;;;2.57;2.00;;;;;;;;;;5051699;28;20199;-51
2023/08/21 01:50:22;;;;;;;3.03;2.33;;;;;;;;;;5051472;28;20204;-51
2023/08/21 01:52:48;;;;;;;4.63;2.17;;;;;;;;;;5051339;28;20395;-53
2023/08/21 01:55:14;;;;;;;3.30;1.90;;;;;;;;;;5051420;28;20194;-51
2023/08/21 01:57:42;;;;;;;2.43;1.97;;;;;;;;;;5051430;28;20315;-51
2023/08/21 02:00:08;;;;;;;3.73;2.03;;;;;;;;;;5051400;28;20683;-51
2023/08/21 02:02:34;;;;;;;3.43;2.30;;;;;;;;;;5051043;28;20722;-51
2023/08/21 02:05:00;;;;;;;3.40;2.20;;;;;;;;;;5051320;28;20197;-51
2023/08/21 02:07:26;;;;;;;7.47;6.80;;;;;;;;;;5051202;28;20245;-51
2023/08/21 02:09:52;;;;;;;4.13;2.60;;;;;;;;;;5051370;28;20205;-51
2023/08/21 02:12:18;;;;;;;2.63;1.90;;;;;;;;;;5050293;28;20200;-51
2023/08/21 02:14:46;;;;;;;2.87;2.23;;;;;;;;;;5050985;28;20548;-50
2023/08/21 02:17:12;;;;;;;2.40;1.73;;;;;;;;;;5051097;28;20641;-51
2023/08/21 02:19:38;;;;;;;6.47;2.50;;;;;;;;;;5051094;28;20196;-50
2023/08/21 02:22:04;;;;;;;3.03;2.10;;;;;;;;;;5050992;28;20287;-50
2023/08/21 02:24:30;;;;;;;3.20;2.10;;;;;;;;;;5050774;28;20360;-51
2023/08/21 02:26:56;;;;;;;2.57;2.00;;;;;;;;;;5051048;28;20308;-50
2023/08/21 02:29:22;;;;;;;2.13;1.90;;;;;;;;;;5050929;28;20693;-50
2023/08/21 02:32:19;;;;;;;3.53;2.00;;;;;;;;;;5050483;28;20323;-51
2023/08/21 02:34:46;;;;;;;2.87;2.10;;;;;;;;;;5048984;28;20271;-51
2023/08/21 02:37:13;;;;;;;4.43;3.63;;;;;;;;;;5050839;28;20204;-51
2023/08/21 02:39:39;;;;;;;5.27;2.53;;;;;;;;;;5050836;28;20563;-51
2023/08/21 02:42:05;;;;;;;2.53;2.10;;;;;;;;;;5050795;28;20316;-50
2023/08/21 02:44:31;;;;;;;5.10;2.20;;;;;;;;;;5050520;28;20245;-50
2023/08/21 02:46:57;;;;;;;3.03;2.17;;;;;;;;;;5050864;28;20659;-50
2023/08/21 02:49:23;;;;;;;3.30;2.07;;;;;;;;;;5050855;28;20199;-51
2023/08/21 02:51:50;;;;;;;3.47;2.10;;;;;;;;;;5050582;28;20251;-51
2023/08/21 02:54:16;;;;;;;1.87;1.77;;;;;;;;;;5050735;28;20619;-51
2023/08/21 02:56:42;;;;;;;2.20;2.00;;;;;;;;;;5050651;28;20198;-51
2023/08/21 02:59:08;;;;;;;4.03;2.33;;;;;;;;;;5050865;28;20201;-50
2023/08/21 03:01:35;;;;;;;3.87;2.23;;;;;;;;;;5050538;28;20198;-51
2023/08/21 03:04:01;;;;;;;3.80;2.00;;;;;;;;;;5050571;28;20229;-51
2023/08/21 03:06:27;;;;;;;2.67;2.20;;;;;;;;;;5050541;28;20199;-50
2023/08/21 03:08:55;;;;;;;4.40;2.30;;;;;;;;;;5050683;28;20717;-51
2023/08/21 03:11:21;;;;;;;5.03;3.00;;;;;;;;;;5050524;28;20205;-50
2023/08/21 03:13:47;;;;;;;3.53;2.87;;;;;;;;;;5050394;28;20283;-51
2023/08/21 03:16:13;;;;;;;3.83;2.93;;;;;;;;;;5050494;28;20201;-51
2023/08/21 03:18:54;;;;;;;4.17;2.83;;;;;;;;;;5050441;28;20628;-51
2023/08/21 03:21:20;;;;;;;3.50;2.50;;;;;;;;;;5050501;28;20251;-51
2023/08/21 03:23:46;;;;;;;4.03;2.77;;;;;;;;;;5051761;28;20277;-51
2023/08/21 03:26:13;;;;;;;4.87;2.30;;;;;;;;;;5054187;28;20681;-51
2023/08/21 03:28:39;;;;;;;4.70;2.70;;;;;;;;;;5053966;28;20308;-51
2023/08/21 03:31:05;;;;;;;3.83;2.20;;;;;;;;;;5053899;28;20285;-50
2023/08/21 03:33:31;;;;;;;3.77;2.50;;;;;;;;;;5053765;28;20204;-51
2023/08/21 03:35:57;;;;;;;5.73;2.63;;;;;;;;;;5054019;28;20204;-50
2023/08/21 03:38:23;;;;;;;3.60;2.50;;;;;;;;;;5053984;28;20298;-51
2023/08/21 03:40:49;;;;;;;3.70;2.77;;;;;;;;;;5053720;28;20280;-50
2023/08/21 03:43:16;;;;;;;2.90;2.60;;;;;;;;;;5053660;28;20311;-51
2023/08/21 03:45:42;;;;;;;4.43;2.93;;;;;;;;;;5053486;28;20240;-51
2023/08/21 03:48:08;;;;;;;3.73;2.90;;;;;;;;;;5053925;28;20310;-51
2023/08/21 03:50:34;;;;;;;4.93;3.50;;;;;;;;;;5053485;28;20282;-51
2023/08/21 03:53:00;;;;;;;4.87;3.40;;;;;;;;;;5053627;28;20192;-51
2023/08/21 03:55:26;;;;;;;4.47;4.00;;;;;;;;;;5053542;28;20651;-51
2023/08/21 03:57:52;;;;;;;4.63;3.80;;;;;;;;;;5053600;28;20294;-51
2023/08/21 04:00:20;;;;;;;4.40;4.00;;;;;;;;;;5053453;28;20287;-50
2023/08/21 04:02:46;;;;;;;5.87;3.87;;;;;;;;;;5053222;28;20247;-50
2023/08/21 04:05:12;;;;;;;4.77;3.80;;;;;;;;;;5053374;28;20670;-50
2023/08/21 04:07:38;;;;;;;4.00;3.60;;;;;;;;;;5053446;28;20231;-50
2023/08/21 04:10:05;;;;;;;3.93;3.10;;;;;;;;;;5053268;28;20196;-50
2023/08/21 04:12:31;;;;;;;4.73;3.50;;;;;;;;;;5053021;28;20234;-51
2023/08/21 04:14:57;;;;;;;4.73;3.67;;;;;;;;;;5053430;28;20200;-51
2023/08/21 04:17:24;;;;;;;4.63;2.90;;;;;;;;;;5053096;28;20199;-50
2023/08/21 04:19:50;;;;;;;5.40;3.10;;;;;;;;;;5052329;28;20632;-50
2023/08/21 04:22:16;;;;;;;4.33;3.07;;;;;;;;;;5052846;28;20207;-50
2023/08/21 04:24:42;;;;;;;5.20;2.87;;;;;;;;;;5052837;28;20282;-50
2023/08/21 04:27:08;;;;;;;3.80;2.60;;;;;;;;;;5052838;28;20203;-51
2023/08/21 04:29:35;;;;;;;4.37;2.97;;;;;;;;;;5052795;28;20196;-50
2023/08/21 04:32:01;;;;;;;3.67;2.70;;;;;;;;;;5052861;28;20200;-51
2023/08/21 04:34:29;;;;;;;3.53;2.60;;;;;;;;;;5050302;28;20188;-50
2023/08/21 04:36:54;;;;;;;6.13;3.00;;;;;;;;;;5052617;28;20283;-51
2023/08/21 04:39:22;;;;;;;4.73;2.70;;;;;;;;;;5052190;28;20774;-50
2023/08/21 04:41:48;;;;;;;5.93;3.08;;;;;;;;;;5048738;28;21114;-50
2023/08/21 04:44:14;;;;;;;3.80;3.10;;;;;;;;;;5051961;28;20286;-51
2023/08/21 04:46:40;;;;;;;3.73;3.00;;;;;;;;;;5052442;28;20188;-51
2023/08/21 04:49:06;;;;;;;4.87;3.03;;;;;;;;;;5052310;28;20246;-52
2023/08/21 04:51:33;;;;;;;3.13;2.80;;;;;;;;;;5052228;28;20204;-52
2023/08/21 04:53:59;;;;;;;5.10;2.73;;;;;;;;;;5052317;28;20754;-52
2023/08/21 04:56:25;;;;;;;5.53;3.37;;;;;;;;;;5052386;28;20291;-52
2023/08/21 04:58:52;;;;;;;2.97;2.63;;;;;;;;;;5052161;28;20311;-52
2023/08/21 05:01:18;;;;;;;5.40;3.50;;;;;;;;;;5052053;28;20647;-52
2023/08/21 05:03:44;;;;;;;4.93;3.17;;;;;;;;;;5051923;28;20247;-52
2023/08/21 05:06:10;;;;;;;3.60;3.10;;;;;;;;;;5052203;28;20542;-52
2023/08/21 05:08:37;;;;;;;5.83;3.07;;;;;;;;;;5051805;28;20227;-52
2023/08/21 05:11:03;;;;;;;4.67;3.10;;;;;;;;;;5051640;28;20204;-52
2023/08/21 05:13:29;;;;;;;5.43;3.10;;;;;;;;;;5051709;28;20254;-52
2023/08/21 05:15:56;;;;;;;4.37;2.83;;;;;;;;;;5051801;28;20250;-51
2023/08/21 05:18:22;;;;;;;5.17;3.37;;;;;;;;;;5051807;28;20201;-52
2023/08/21 05:20:49;;;;;;;4.47;3.00;;;;;;;;;;5050624;28;20209;-53
2023/08/21 05:23:15;;;;;;;3.97;3.00;;;;;;;;;;5031631;28;20225;-52
2023/08/21 05:25:42;;;;;;;3.40;2.67;;;;;;;;;;5031818;28;20199;-51
2023/08/21 05:28:08;;;;;;;4.67;3.20;;;;;;;;;;5031843;28;20209;-52
2023/08/21 05:30:36;;;;;;;6.70;3.30;;;;;;;;;;5031600;28;20292;-51
2023/08/21 05:33:02;;;;;;;4.70;3.33;;;;;;;;;;5031773;28;20563;-51
2023/08/21 05:35:28;;;;;;;6.43;3.50;;;;;;;;;;5031598;28;20194;-51
2023/08/21 05:37:54;;;;;;;5.57;3.53;;;;;;;;;;5031646;28;20223;-52
2023/08/21 05:40:20;;;;;;;5.53;3.93;;;;;;;;;;5031586;28;20663;-52
2023/08/21 05:42:48;;;;;;;8.77;4.13;;;;;;;;;;5030968;28;20323;-52
2023/08/21 05:45:14;;;;;;;4.53;3.77;;;;;;;;;;5030992;28;20300;-52
2023/08/21 05:47:40;;;;;;;4.30;3.90;;;;;;;;;;5031174;28;20193;-50
2023/08/21 05:50:07;;;;;;;5.60;3.93;;;;;;;;;;5031449;28;20209;-52
2023/08/21 05:52:33;;;;;;;4.90;3.70;;;;;;;;;;5031295;28;20204;-51
2023/08/21 05:54:59;;;;;;;5.20;3.47;;;;;;;;;;5029083;28;20196;-51
2023/08/21 05:57:25;;;;;;;3.73;3.30;;;;;;;;;;5029555;28;20666;-50
2023/08/21 05:59:52;;;;;;;5.10;3.43;;;;;;;;;;5030761;28;20197;-51
2023/08/21 06:02:18;;;;;;;4.60;3.50;;;;;;;;;;5030869;28;20204;-52
2023/08/21 06:04:44;;;;;;;4.10;3.60;;;;;;;;;;5030576;28;20246;-51
2023/08/21 06:07:10;;;;;;;5.57;3.43;;;;;;;;;;5030983;28;20249;-52
2023/08/21 06:09:36;;;;;;;5.73;3.40;;;;;;;;;;5030903;28;20566;-51
2023/08/21 06:12:03;;;;;;;3.83;3.13;;;;;;;;;;5030814;28;20294;-52
2023/08/21 06:14:29;;;;;;;6.70;3.90;;;;;;;;;;5030500;28;20196;-52
2023/08/21 06:16:57;;;;;;;4.40;3.20;;;;;;;;;;5030819;28;20199;-51
2023/08/21 06:19:25;;;;;;;5.83;3.83;;;;;;;;;;5030631;28;20619;-52
2023/08/21 06:21:51;;;;;;;5.43;3.47;;;;;;;;;;5030509;28;20196;-51
2023/08/21 06:24:17;;;;;;;6.03;4.33;;;;;;;;;;5030432;28;21047;-52
2023/08/21 06:26:43;;;;;;;7.27;4.50;;;;;;;;;;5030521;28;20288;-51
2023/08/21 06:29:09;;;;;;;4.47;3.57;;;;;;;;;;5030744;28;20224;-53
2023/08/21 06:31:35;;;;;;;6.73;3.80;;;;;;;;;;5030467;28;20228;-52
2023/08/21 06:34:02;;;;;;;4.90;3.37;;;;;;;;;;5030565;28;20243;-51
2023/08/21 06:36:28;;;;;;;7.03;4.60;;;;;;;;;;5030383;28;20205;-51
2023/08/21 06:38:55;;;;;;;4.70;3.53;;;;;;;;;;5030595;28;20200;-51
2023/08/21 06:41:21;;;;;;;7.57;3.87;;;;;;;;;;5030610;28;20207;-51
2023/08/21 06:43:47;;;;;;;5.77;4.60;;;;;;;;;;5029926;28;20222;-52
2023/08/21 06:46:14;;;;;;;10.37;4.57;;;;;;;;;;5030134;28;20204;-51
2023/08/21 06:48:43;;;;;;;6.10;4.40;;;;;;;;;;5030417;28;20243;-51
2023/08/21 06:51:10;;;;;;;7.37;4.07;;;;;;;;;;5030432;28;20200;-51
2023/08/21 06:53:36;;;;;;;7.23;4.13;;;;;;;;;;5030349;28;20276;-52
2023/08/21 06:56:02;;;;;;;7.47;4.47;;;;;;;;;;5030330;28;20197;-52
2023/08/21 06:58:28;;;;;;;6.43;4.20;;;;;;;;;;5031378;28;20251;-51
2023/08/21 07:00:55;;;;;;;6.40;3.90;;;;;;;;;;5034232;28;20729;-52
2023/08/21 07:03:21;;;;;;;8.77;4.00;;;;;;;;;;5034194;28;20241;-52
2023/08/21 07:05:54;;;;;;;6.77;4.30;;;;;;;;;;5016137;28;20252;-52
2023/08/21 07:08:21;;;;;;;7.77;4.50;;;;;;;;;;5034139;28;20232;-52
2023/08/21 07:10:47;;;;;;;10.10;4.83;;;;;;;;;;5033920;28;20415;-52
2023/08/21 07:13:13;;;;;;;6.17;4.57;;;;;;;;;;5034054;28;20279;-52
2023/08/21 07:15:39;;;;;;;10.23;4.80;;;;;;;;;;5033990;28;20218;-52
2023/08/21 07:18:05;;;;;;;8.20;4.40;;;;;;;;;;5033833;28;20602;-51
2023/08/21 07:20:31;;;;;;;8.10;4.13;;;;;;;;;;5033731;28;20260;-51
2023/08/21 07:22:57;;;;;;;6.10;3.73;;;;;;;;;;5033907;28;20201;-52
2023/08/21 07:25:25;;;;;;;7.50;3.87;;;;;;;;;;5033900;28;20264;-52
2023/08/21 07:27:53;;;;;;;5.83;3.90;;;;;;;;;;5033480;28;20204;-52
2023/08/21 07:30:19;;;;;;;7.07;3.77;;;;;;;;;;5033659;28;20228;-52
2023/08/21 07:32:46;;;;;;;7.80;4.40;;;;;;;;;;5033495;28;20193;-52
2023/08/21 07:35:12;;;;;;;4.53;3.07;;;;;;;;;;5033689;28;20611;-51
2023/08/21 07:37:40;;;;;;;6.33;3.90;;;;;;;;;;5033731;28;20201;-51
2023/08/21 07:40:07;;;;;;;10.10;4.13;;;;;;;;;;5033489;28;20309;-51
2023/08/21 07:42:34;;;;;;;8.33;4.10;;;;;;;;;;5033277;28;20282;-50
2023/08/21 07:45:00;;;;;;;8.33;4.23;;;;;;;;;;5033179;28;20241;-51
2023/08/21 07:47:27;;;;;;;6.67;4.10;;;;;;;;;;5033245;28;20557;-51
2023/08/21 07:49:53;;;;;;;6.83;3.50;;;;;;;;;;5033114;28;20201;-50
2023/08/21 07:52:19;;;;;;;8.30;3.73;;;;;;;;;;5033270;28;20286;-51
2023/08/21 07:54:45;;;;;;;10.17;3.87;;;;;;;;;;5033026;28;20194;-50
2023/08/21 07:57:12;;;;;;;7.27;3.93;;;;;;;;;;5033288;28;20308;-50
2023/08/21 07:59:39;;;;;;;6.90;3.80;;;;;;;;;;5033161;28;20655;-52
2023/08/21 08:02:05;;;;;;;10.63;4.70;;;;;;;;;;5033125;28;20208;-52
2023/08/21 08:04:31;;;;;;;16.73;4.90;;;;;;;;;;5032851;28;20217;-52
2023/08/21 08:06:57;;;;;;;7.70;4.03;;;;;;;;;;5033026;28;20193;-51
2023/08/21 08:09:23;;;;;;;7.57;4.13;;;;;;;;;;5032310;28;20254;-51
2023/08/21 08:11:49;;;;;;;5.27;3.43;;;;;;;;;;5032129;28;20565;-52
2023/08/21 08:14:15;;;;;;;7.80;3.77;;;;;;;;;;5032901;28;20205;-52
2023/08/21 08:16:42;;;;;;;6.63;3.40;;;;;;;;;;5032765;28;20202;-52
2023/08/21 08:19:08;;;;;;;8.40;4.03;;;;;;;;;;5032742;28;20388;-51
2023/08/21 08:21:35;;;;;;;9.67;4.30;;;;;;;;;;5032566;28;20200;-52
2023/08/21 08:24:01;;;;;;;7.00;3.80;;;;;;;;;;5032605;28;20237;-50
2023/08/21 08:26:27;;;;;;;10.07;4.40;;;;;;;;;;5032646;28;20693;-51
2023/08/21 08:28:53;;;;;;;10.30;4.37;;;;;;;;;;5032665;28;20206;-52
2023/08/21 08:31:19;;;;;;;8.97;4.10;;;;;;;;;;5032506;28;20212;-50
2023/08/21 08:33:48;;;;;;;5.53;3.53;;;;;;;;;;5032273;28;20193;-52
2023/08/21 08:36:14;;;;;;;7.60;4.00;;;;;;;;;;5032305;28;20206;-52
2023/08/21 08:38:40;;;;;;;8.83;3.67;;;;;;;;;;5032510;28;20237;-52
2023/08/21 08:41:10;;;;;;;7.30;3.20;;;;;;;;;;5032008;28;20233;-52
2023/08/21 08:43:39;;;;;;;9.20;4.10;;;;;;;;;;5031132;28;20273;-52
2023/08/21 08:46:06;;;;;;;6.63;2.77;;;;;;;;;;5031860;28;20252;-52
2023/08/21 08:48:32;;;;;;;6.67;3.47;;;;;;;;;;5031873;28;20634;-52
2023/08/21 08:50:59;;;;;;;8.40;3.70;;;;;;;;;;5031929;28;20560;-52
2023/08/21 08:53:26;;;;;;;6.83;3.53;;;;;;;;;;5032276;28;20825;-52
2023/08/21 08:55:52;;;;;;;8.53;3.80;;;;;;;;;;5031910;28;20657;-52
2023/08/21 08:58:18;;;;;;;6.80;2.70;;;;;;;;;;5031321;28;20734;-53
2023/08/21 09:00:44;;;;;;;7.67;2.73;;;;;;;;;;5031785;28;20202;-49
2023/08/21 09:03:12;;;;;;;5.13;2.83;;;;;;;;;;5031928;28;20673;-51
2023/08/21 09:05:40;;;;;;;9.67;2.83;;;;;;;;;;5031686;28;20203;-50
2023/08/21 09:08:11;;;;;;;6.27;3.27;;;;;;;;;;5031578;28;20274;-50
2023/08/21 09:10:38;;;;;;;6.80;2.67;;;;;;;;;;5031618;28;20287;-50
2023/08/21 09:13:09;;;;;;;5.70;2.50;;;;;;;;;;5031700;28;20207;-48
2023/08/21 09:15:36;;;;;;;6.60;2.70;;;;;;;;;;5031581;28;20205;-48
2023/08/21 09:18:02;;;;;;;8.63;2.80;;;;;;;;;;5031685;28;20616;-48
2023/08/21 09:20:34;;;;;;;6.97;3.00;;;;;;;;;;5031417;28;20254;-51
2023/08/21 09:23:00;;;;;;;7.40;2.70;;;;;;;;;;5031187;28;20556;-48
2023/08/21 09:25:28;;;;;;;5.43;2.37;;;;;;;;;;5031404;28;20200;-49
2023/08/21 09:27:54;;;;;;;5.17;2.03;;;;;;;;;;5031479;28;20250;-49
2023/08/21 09:30:20;;;;;;;6.70;2.50;;;;;;;;;;5031300;28;20235;-49
2023/08/21 09:32:54;;;;;;;4.20;2.23;;;;;;;;;;5031223;28;20571;-49
2023/08/21 09:35:20;;;;;;;6.50;2.27;;;;;;;;;;5031130;28;20598;-49
2023/08/21 09:37:46;;;;;;;5.50;2.30;;;;;;;;;;5030740;28;20443;-48
2023/08/21 09:40:13;;;;;;;4.70;2.10;;;;;;;;;;5031244;28;20648;-48
2023/08/21 09:42:40;;;;;;;4.47;2.03;;;;;;;;;;5031140;28;20223;-48
2023/08/21 09:45:07;;;;;;;3.47;1.73;;;;;;;;;;5030742;28;20249;-48
2023/08/21 09:47:33;;;;;;;6.93;2.23;;;;;;;;;;5030997;28;20658;-48
2023/08/21 09:49:59;;;;;;;8.07;2.50;;;;;;;;;;5030843;28;20606;-49
2023/08/21 09:52:26;;;;;;;7.03;2.10;;;;;;;;;;5031073;28;20188;-48
2023/08/21 09:54:53;;;;;;;6.03;2.10;;;;;;;;;;5030876;28;20201;-48
2023/08/21 09:57:22;;;;;;;5.60;2.03;;;;;;;;;;5030996;28;20204;-49
2023/08/21 09:59:53;;;;;;;4.00;1.87;;;;;;;;;;5030930;28;20388;-49
2023/08/21 10:02:19;;;;;;;4.53;1.83;;;;;;;;;;5031049;28;20224;-48
2023/08/21 10:04:46;;;;;;;5.40;2.00;;;;;;;;;;5030416;28;20231;-49
2023/08/21 10:07:12;;;;;;;6.87;1.90;;;;;;;;;;5030968;28;20218;-49
2023/08/21 10:09:39;;;;;;;2.80;1.73;;;;;;;;;;5030711;28;20219;-49
2023/08/21 10:12:06;;;;;;;4.63;1.83;;;;;;;;;;5030839;28;20206;-49
2023/08/21 10:14:33;;;;;;;2.40;1.47;;;;;;;;;;5030545;28;20192;-49
2023/08/21 10:17:00;;;;;;;3.90;1.73;;;;;;;;;;5030588;28;20675;-50
2023/08/21 10:19:31;;;;;;;4.93;1.90;;;;;;;;;;5030645;28;20262;-49
2023/08/21 10:21:59;;;;;;;3.03;1.63;;;;;;;;;;5030714;28;20206;-49
2023/08/21 10:24:28;;;;;;;3.70;1.60;;;;;;;;;;5030630;28;20218;-49
2023/08/21 10:26:54;;;;;;;5.93;2.00;;;;;;;;;;5030546;28;20201;-49
2023/08/21 10:29:20;;;;;;;2.53;1.63;;;;;;;;;;5030290;28;20667;-49
2023/08/21 10:31:46;;;;;;;5.27;1.83;;;;;;;;;;5030288;28;20204;-49
2023/08/21 10:34:14;;;;;;;2.70;1.43;;;;;;;;;;5032930;28;20251;-49
2023/08/21 10:37:07;;;;;;;3.10;1.50;;;;;;;;;;5034567;28;20200;-49
2023/08/21 10:39:35;;;;;;;3.00;1.60;;;;;;;;;;5034320;28;20938;-49
2023/08/21 10:42:03;;;;;;;3.60;1.60;;;;;;;;;;5034266;28;20446;-49
2023/08/21 10:44:36;;;;;;;2.23;1.33;;;;;;;;;;5034230;28;20259;-50
2023/08/21 10:47:15;;;;;;;5.27;1.70;;;;;;;;;;5034225;28;20202;-50
2023/08/21 10:49:42;;;;;;;3.20;1.50;;;;;;;;;;5034442;28;20250;-51
2023/08/21 10:52:09;;;;;;;2.77;1.70;;;;;;;;;;5034314;28;20242;-50
2023/08/21 10:54:43;;;;;;;6.33;1.90;;;;;;;;;;5034179;28;20671;-50
2023/08/21 10:57:09;;;;;;;3.63;1.50;;;;;;;;;;5034427;28;20256;-50
2023/08/21 10:59:35;;;;;;;3.53;1.50;;;;;;;;;;5033917;28;20202;-50
2023/08/21 11:02:01;;;;;;;8.27;2.20;;;;;;;;;;5033834;28;20657;-50
2023/08/21 11:04:27;;;;;;;5.33;1.50;;;;;;;;;;5033972;28;20228;-50
2023/08/21 11:06:56;;;;;;;5.63;1.63;;;;;;;;;;5033817;28;20203;-50
2023/08/21 11:09:22;;;;;;;6.10;1.83;;;;;;;;;;5028586;28;20215;-51
2023/08/21 11:11:48;;;;;;;4.37;1.60;;;;;;;;;;5053409;28;20791;-51
2023/08/21 11:14:14;;;;;;;5.10;2.10;;;;;;;;;;5053651;28;20212;-51
2023/08/21 11:16:40;;;;;;;3.63;1.60;;;;;;;;;;5053783;28;20195;-51
2023/08/21 11:19:06;;;;;;;6.13;1.60;;;;;;;;;;5052475;28;20231;-51
2023/08/21 11:21:32;;;;;;;2.50;1.10;;;;;;;;;;5033560;28;20235;-51
2023/08/21 11:23:59;;;;;;;3.37;1.57;;;;;;;;;;5033484;28;20587;-50
2023/08/21 11:26:26;;;;;;;3.53;1.77;;;;;;;;;;5033641;28;20635;-52
2023/08/21 11:28:52;;;;;;;4.90;2.10;;;;;;;;;;5033094;28;20665;-50
2023/08/21 11:31:18;;;;;;;2.63;1.47;;;;;;;;;;5033391;28;20839;-50
2023/08/21 11:33:49;;;;;;;3.23;1.70;;;;;;;;;;5033138;28;20207;-51
2023/08/21 11:36:15;;;;;;;5.70;1.93;;;;;;;;;;5033438;28;20239;-51
2023/08/21 11:38:41;;;;;;;5.10;1.73;;;;;;;;;;5029713;28;20206;-49
2023/08/21 11:41:08;;;;;;;5.87;1.80;;;;;;;;;;5033481;28;20206;-50
2023/08/21 11:43:36;;;;;;;3.40;1.97;;;;;;;;;;5033050;28;20273;-50
2023/08/21 11:46:02;;;;;;;3.47;1.53;;;;;;;;;;5033209;28;20198;-50
2023/08/21 11:48:28;;;;;;;4.47;1.50;;;;;;;;;;5033273;28;20211;-49
2023/08/21 11:50:54;;;;;;;2.47;1.70;;;;;;;;;;5033162;28;20241;-49
2023/08/21 11:53:31;;;;;;;4.87;1.87;;;;;;;;;;5033161;28;20224;-50
2023/08/21 11:55:57;;;;;;;3.87;1.70;;;;;;;;;;5033128;28;20201;-50
2023/08/21 11:58:26;;;;;;;5.07;1.77;;;;;;;;;;5033550;28;20200;-50
2023/08/21 12:00:53;;;;;;;4.50;1.77;;;;;;;;;;5033087;28;20617;-50
2023/08/21 12:03:19;;;;;;;4.30;1.70;;;;;;;;;;5032913;28;20214;-51
2023/08/21 12:05:45;;;;;;;6.70;1.80;;;;;;;;;;5032679;28;20551;-51
2023/08/21 12:08:11;;;;;;;3.10;1.50;;;;;;;;;;5032950;28;20212;-51
2023/08/21 12:10:37;;;;;;;4.57;2.10;;;;;;;;;;5032640;28;20207;-52
2023/08/21 12:13:03;;;;;;;4.77;1.80;;;;;;;;;;5032729;28;20634;-51
2023/08/21 12:15:31;;;;;;;3.70;1.43;;;;;;;;;;5032470;28;20198;-50
2023/08/21 12:17:57;;;;;;;5.03;2.03;;;;;;;;;;5032555;28;20256;-50
2023/08/21 12:20:23;;;;;;;4.33;1.67;;;;;;;;;;5032837;28;20200;-50
2023/08/21 12:22:49;;;;;;;4.30;1.70;;;;;;;;;;5032507;28;20193;-51
2023/08/21 12:25:16;;;;;;;4.40;1.50;;;;;;;;;;5032580;28;20223;-51
2023/08/21 12:27:42;;;;;;;4.03;1.80;;;;;;;;;;5032447;28;20210;-52
2023/08/21 12:30:08;;;;;;;2.90;1.40;;;;;;;;;;5032564;28;20196;-52
2023/08/21 12:32:36;;;;;;;2.97;1.60;;;;;;;;;;5032038;28;20748;-51
2023/08/21 12:35:04;;;;;;;6.07;1.80;;;;;;;;;;5032317;28;20204;-51
2023/08/21 12:37:30;;;;;;;3.90;1.50;;;;;;;;;;5032472;28;20197;-51
2023/08/21 12:39:56;;;;;;;4.80;1.40;;;;;;;;;;5032412;28;20210;-51
2023/08/21 12:42:22;;;;;;;2.97;1.60;;;;;;;;;;5032380;28;20238;-52
2023/08/21 12:44:48;;;;;;;2.67;1.30;;;;;;;;;;5031815;28;20301;-51
2023/08/21 12:47:14;;;;;;;4.77;1.70;;;;;;;;;;5031981;28;20203;-50
2023/08/21 12:49:44;;;;;;;2.83;1.47;;;;;;;;;;5032026;28;20203;-51
2023/08/21 12:52:12;;;;;;;3.30;1.53;;;;;;;;;;5032247;28;20203;-51
2023/08/21 12:54:38;;;;;;;3.50;1.60;;;;;;;;;;5031884;28;20302;-52
2023/08/21 12:57:04;;;;;;;4.57;1.83;;;;;;;;;;5031133;28;20301;-51
2023/08/21 12:59:30;;;;;;;6.93;1.90;;;;;;;;;;5031925;28;20191;-51
2023/08/21 13:01:56;;;;;;;3.90;1.33;;;;;;;;;;5031960;28;20202;-52
2023/08/21 13:04:22;;;;;;;3.10;1.63;;;;;;;;;;5031675;28;20222;-51
2023/08/21 13:06:49;;;;;;;2.63;1.20;;;;;;;;;;5031629;28;20280;-51
2023/08/21 13:09:15;;;;;;;6.73;1.80;;;;;;;;;;5031816;28;20209;-52
2023/08/21 13:11:41;;;;;;;2.60;1.43;;;;;;;;;;5031904;28;20282;-51
2023/08/21 13:14:07;;;;;;;3.40;1.43;;;;;;;;;;5031752;28;20848;-51
2023/08/21 13:16:33;;;;;;;4.17;1.60;;;;;;;;;;5031626;28;20245;-54
2023/08/21 13:18:59;;;;;;;1.93;1.33;;;;;;;;;;5031458;28;20195;-50
2023/08/21 13:21:25;;;;;;;2.33;1.43;;;;;;;;;;5031798;28;20204;-50
2023/08/21 13:23:54;;;;;;;3.37;1.43;;;;;;;;;;5031398;28;20266;-52
2023/08/21 13:26:20;;;;;;;3.97;1.50;;;;;;;;;;5031476;28;20209;-52
2023/08/21 13:28:46;;;;;;;5.73;1.60;;;;;;;;;;5031238;28;20198;-51
2023/08/21 13:31:12;;;;;;;3.57;1.23;;;;;;;;;;5031278;28;20260;-51
2023/08/21 13:33:45;;;;;;;3.43;1.40;;;;;;;;;;5031410;28;20190;-48
2023/08/21 13:36:11;;;;;;;4.77;1.57;;;;;;;;;;5031583;28;20623;-48
2023/08/21 13:38:37;;;;;;;2.30;1.27;;;;;;;;;;5031116;28;20643;-47
2023/08/21 13:41:04;;;;;;;2.83;1.30;;;;;;;;;;5031089;28;20199;-49
2023/08/21 13:43:30;;;;;;;3.03;1.60;;;;;;;;;;5031000;28;20267;-48
2023/08/21 13:45:56;;;;;;;2.53;1.40;;;;;;;;;;5031195;28;20278;-48
2023/08/21 13:48:22;;;;;;;3.80;1.60;;;;;;;;;;5031195;28;20665;-49
2023/08/21 13:50:48;;;;;;;2.63;1.20;;;;;;;;;;5030864;28;20209;-49
2023/08/21 13:53:14;;;;;;;4.83;1.60;;;;;;;;;;5031108;28;20239;-51
2023/08/21 13:55:40;;;;;;;3.50;1.40;;;;;;;;;;5031144;28;20194;-55
2023/08/21 13:58:07;;;;;;;4.00;1.60;;;;;;;;;;5030897;28;20245;-51
2023/08/21 14:00:34;;;;;;;2.80;1.33;;;;;;;;;;5030960;28;20582;-51
2023/08/21 14:03:00;;;;;;;3.77;1.40;;;;;;;;;;5030340;28;20635;-51
2023/08/21 14:05:27;;;;;;;2.13;1.27;;;;;;;;;;5030984;28;20263;-50
2023/08/21 14:07:53;;;;;;;4.97;1.50;;;;;;;;;;5025136;28;20286;-50
2023/08/21 14:10:19;;;;;;;3.57;1.50;;;;;;;;;;5050389;28;20745;-49
2023/08/21 14:12:45;;;;;;;4.10;1.50;;;;;;;;;;5050215;28;20194;-49
2023/08/21 14:15:12;;;;;;;3.40;1.50;;;;;;;;;;5050604;28;20193;-49
2023/08/21 14:17:38;;;;;;;3.57;1.20;;;;;;;;;;5050612;28;20230;-48
2023/08/21 14:20:07;;;;;;;3.90;1.57;;;;;;;;;;5050111;28;20200;-48
2023/08/21 14:22:33;;;;;;;7.13;1.67;;;;;;;;;;5037832;28;20571;-48
2023/08/21 14:24:59;;;;;;;3.37;1.53;;;;;;;;;;5030367;28;20817;-49
2023/08/21 14:27:25;;;;;;;4.57;1.30;;;;;;;;;;5030530;28;20295;-49
2023/08/21 14:29:51;;;;;;;2.23;1.17;;;;;;;;;;5030297;28;20292;-49
2023/08/21 14:32:18;;;;;;;4.23;1.40;;;;;;;;;;5030494;28;20280;-49
2023/08/21 14:34:44;;;;;;;3.40;1.73;;;;;;;;;;5030147;28;20201;-49
2023/08/21 14:37:15;;;;;;;3.30;1.50;;;;;;;;;;5030603;28;20198;-49
2023/08/21 14:39:41;;;;;;;3.57;1.50;;;;;;;;;;5030303;28;20185;-50